Time;durP1;ratioP1;P1;durP2;ratioP2;P2;SDS_P1;SDS_P2;PMS_P1;PMS_P2;Temp;Humidity;BMP_temperature;BMP_pressure;BME280_temperature;BME280_humidity;BME280_pressure;Samples;Min_cycle;Max_cycle;Signal;HPM_P1;HPM_P2
2023/03/29 00:01:15;;;;;;;5.85;4.25;;;3.00;99.90;;;;;;5032828;28;20266;-74
2023/03/29 00:03:44;;;;;;;6.70;4.22;;;3.00;99.90;;;;;;5039496;28;20227;-75
2023/03/29 00:06:13;;;;;;;4.80;3.83;;;3.10;99.90;;;;;;5037421;28;20286;-75
2023/03/29 00:08:40;;;;;;;6.03;4.72;;;3.10;99.90;;;;;;5032883;28;20180;-75
2023/03/29 00:11:06;;;;;;;5.57;4.50;;;3.10;99.90;;;;;;5041134;28;20666;-74
2023/03/29 00:13:32;;;;;;;7.88;4.18;;;3.00;99.90;;;;;;5030776;28;20211;-74
2023/03/29 00:15:57;;;;;;;5.60;4.07;;;2.90;99.90;;;;;;5038791;28;20728;-75
2023/03/29 00:18:23;;;;;;;8.13;5.43;;;2.90;99.90;;;;;;5029315;28;20185;-74
2023/03/29 00:20:56;;;;;;;5.05;4.45;;;2.90;99.90;;;;;;5035558;28;20193;-74
2023/03/29 00:23:23;;;;;;;6.03;4.40;;;2.90;99.90;;;;;;5042336;28;20209;-74
2023/03/29 00:25:49;;;;;;;4.78;4.05;;;2.90;99.90;;;;;;5045536;28;20200;-74
2023/03/29 00:28:15;;;;;;;4.93;4.43;;;2.90;99.90;;;;;;5038182;28;20183;-75
2023/03/29 00:30:40;;;;;;;5.00;4.03;;;2.90;99.90;;;;;;5045613;28;20168;-74
2023/03/29 00:33:06;;;;;;;5.40;4.60;;;3.00;99.90;;;;;;5039155;28;20200;-74
2023/03/29 00:35:32;;;;;;;4.53;4.10;;;3.00;99.90;;;;;;5019622;28;20191;-73
2023/03/29 00:37:58;;;;;;;4.60;3.80;;;3.00;99.90;;;;;;5033758;28;20250;-73
2023/03/29 00:40:25;;;;;;;4.63;4.18;;;3.10;99.90;;;;;;5037327;28;20188;-74
2023/03/29 00:42:51;;;;;;;5.45;4.47;;;3.10;99.90;;;;;;5026250;28;20246;-74
2023/03/29 00:45:21;;;;;;;5.40;4.05;;;3.10;99.90;;;;;;5035444;28;20196;-75
2023/03/29 00:47:56;;;;;;;6.07;4.05;;;3.20;99.90;;;;;;5038202;28;20184;-75
2023/03/29 00:50:42;;;;;;;5.10;4.00;;;3.20;99.90;;;;;;5039584;28;20191;-75
2023/03/29 00:53:16;;;;;;;6.60;4.38;;;3.20;99.90;;;;;;5033842;28;20699;-75
2023/03/29 00:55:51;;;;;;;6.50;4.55;;;3.20;99.90;;;;;;5042544;28;20187;-74
2023/03/29 00:58:23;;;;;;;6.25;4.70;;;3.20;99.90;;;;;;5039569;28;20175;-74
2023/03/29 01:01:18;;;;;;;5.07;4.30;;;3.20;99.90;;;;;;5033768;28;20184;-74
2023/03/29 01:03:58;;;;;;;7.25;4.55;;;3.30;99.90;;;;;;5032608;28;20184;-75
2023/03/29 01:06:28;;;;;;;5.13;4.43;;;3.30;99.90;;;;;;5038322;28;20554;-75
2023/03/29 01:09:00;;;;;;;5.70;4.95;;;3.20;99.90;;;;;;5036663;28;20199;-76
2023/03/29 01:11:45;;;;;;;5.82;4.70;;;3.10;99.90;;;;;;5049305;28;20245;-75
2023/03/29 01:14:47;;;;;;;6.82;3.95;;;3.10;99.90;;;;;;5043338;28;20234;-75
2023/03/29 01:17:13;;;;;;;5.25;3.90;;;3.20;99.90;;;;;;5047326;28;20180;-75
2023/03/29 01:19:50;;;;;;;5.65;4.43;;;3.10;99.90;;;;;;5046550;28;21013;-75
2023/03/29 01:22:44;;;;;;;5.35;3.80;;;3.20;99.90;;;;;;5048172;28;20597;-75
2023/03/29 01:25:25;;;;;;;4.20;3.80;;;3.30;99.90;;;;;;5043574;28;20326;-75
2023/03/29 01:28:02;;;;;;;4.88;4.38;;;3.30;99.90;;;;;;5044539;28;20182;-75
2023/03/29 01:30:36;;;;;;;4.93;4.43;;;3.30;99.90;;;;;;5040581;28;20669;-75
2023/03/29 01:33:04;;;;;;;4.72;3.70;;;3.30;99.90;;;;;;5043734;28;20200;-75
2023/03/29 01:35:43;;;;;;;5.22;4.25;;;3.20;99.90;;;;;;5039445;28;20176;-74
2023/03/29 01:38:17;;;;;;;9.63;5.45;;;3.20;99.90;;;;;;5041053;28;20174;-74
2023/03/29 01:40:42;;;;;;;4.75;3.85;;;3.20;99.90;;;;;;5041596;28;20176;-74
2023/03/29 01:43:26;;;;;;;7.07;3.83;;;3.20;99.90;;;;;;5044520;28;20200;-74
2023/03/29 01:46:20;;;;;;;5.25;3.88;;;3.20;99.90;;;;;;5047768;28;20192;-75
2023/03/29 01:48:54;;;;;;;5.70;4.32;;;3.20;99.90;;;;;;5034150;28;20183;-75
2023/03/29 01:51:32;;;;;;;6.00;3.80;;;3.20;99.90;;;;;;5044588;28;20263;-75
2023/03/29 01:54:13;;;;;;;4.15;3.50;;;3.20;99.90;;;;;;5044602;28;20263;-74
2023/03/29 01:56:42;;;;;;;4.25;3.80;;;3.30;99.90;;;;;;5032281;28;20172;-75
2023/03/29 01:59:17;;;;;;;5.22;3.83;;;3.20;99.90;;;;;;5039315;28;20603;-74
2023/03/29 02:01:52;;;;;;;8.05;4.03;;;3.20;99.90;;;;;;5043784;28;20195;-75
2023/03/29 02:04:26;;;;;;;5.32;3.10;;;3.20;99.90;;;;;;5038303;28;20183;-75
2023/03/29 02:06:54;;;;;;;7.13;3.92;;;3.20;99.90;;;;;;5049754;28;20207;-75
2023/03/29 02:09:21;;;;;;;4.40;3.20;;;3.20;99.90;;;;;;5041350;28;20200;-75
2023/03/29 02:11:48;;;;;;;5.68;3.20;;;3.30;99.90;;;;;;5040195;28;20658;-75
2023/03/29 02:14:14;;;;;;;4.32;3.35;;;3.20;99.90;;;;;;5035137;28;20176;-74
2023/03/29 02:16:39;;;;;;;4.53;3.42;;;3.30;99.90;;;;;;5021287;28;20704;-74
2023/03/29 02:19:08;;;;;;;5.88;3.50;;;3.30;99.90;;;;;;5041117;28;20184;-74
2023/03/29 02:22:03;;;;;;;3.00;2.80;;;3.30;99.90;;;;;;5042461;28;20279;-75
2023/03/29 02:24:33;;;;;;;4.50;3.63;;;3.30;99.90;;;;;;5027849;28;20203;-74
2023/03/29 02:27:00;;;;;;;4.38;3.40;;;3.30;99.90;;;;;;5043367;28;20172;-75
2023/03/29 02:29:26;;;;;;;4.88;3.33;;;3.20;99.90;;;;;;5047708;28;20310;-75
2023/03/29 02:32:03;;;;;;;4.35;3.53;;;3.20;99.90;;;;;;5041389;28;20203;-74
2023/03/29 02:34:37;;;;;;;3.28;2.97;;;3.20;99.90;;;;;;5038967;28;20192;-74
2023/03/29 02:37:09;;;;;;;4.97;3.25;;;3.10;99.90;;;;;;5031670;28;20560;-74
2023/03/29 02:39:35;;;;;;;3.53;3.08;;;3.10;99.90;;;;;;5035921;28;20246;-74
2023/03/29 02:42:02;;;;;;;4.05;3.33;;;3.10;99.90;;;;;;5038724;28;20203;-75
2023/03/29 02:44:31;;;;;;;5.72;3.72;;;3.10;99.90;;;;;;5040085;28;20212;-74
2023/03/29 02:47:02;;;;;;;3.58;3.35;;;3.10;99.90;;;;;;5040865;28;20172;-74
2023/03/29 02:49:28;;;;;;;5.70;3.35;;;3.10;99.90;;;;;;5036612;28;20176;-74
2023/03/29 02:51:59;;;;;;;5.63;3.08;;;3.00;99.90;;;;;;5042543;28;20715;-75
2023/03/29 02:54:28;;;;;;;3.38;3.08;;;3.00;99.90;;;;;;5040638;28;20247;-75
2023/03/29 02:56:59;;;;;;;3.92;3.30;;;2.90;99.90;;;;;;5043547;28;20168;-75
2023/03/29 02:59:28;;;;;;;6.80;3.40;;;2.80;99.90;;;;;;5040258;28;20191;-75
2023/03/29 03:01:54;;;;;;;4.47;3.47;;;2.80;99.90;;;;;;5027805;28;20192;-75
2023/03/29 03:04:20;;;;;;;3.92;3.58;;;2.80;99.90;;;;;;5032120;28;20242;-75
2023/03/29 03:06:46;;;;;;;3.83;3.47;;;2.70;99.90;;;;;;5034125;28;20180;-74
2023/03/29 03:09:13;;;;;;;4.25;3.95;;;2.80;99.90;;;;;;5032645;28;20256;-76
2023/03/29 03:11:39;;;;;;;4.18;3.78;;;2.80;99.90;;;;;;5030182;28;20271;-74
2023/03/29 03:14:06;;;;;;;6.55;4.10;;;2.70;99.90;;;;;;5037360;28;20691;-74
2023/03/29 03:16:32;;;;;;;7.20;3.65;;;2.60;99.90;;;;;;5036035;28;20210;-74
2023/03/29 03:18:57;;;;;;;6.70;4.03;;;2.50;99.90;;;;;;5037882;28;20204;-75
2023/03/29 03:21:24;;;;;;;6.77;3.90;;;2.40;99.90;;;;;;5034231;28;20181;-73
2023/03/29 03:23:50;;;;;;;7.45;4.13;;;2.20;99.90;;;;;;5040946;28;20179;-74
2023/03/29 03:26:17;;;;;;;3.72;3.42;;;2.10;99.90;;;;;;5028957;28;20201;-75
2023/03/29 03:28:44;;;;;;;4.43;3.80;;;2.00;99.90;;;;;;5032763;28;20215;-74
2023/03/29 03:31:10;;;;;;;5.80;4.00;;;2.00;99.90;;;;;;5039493;28;20648;-75
2023/03/29 03:33:35;;;;;;;4.22;3.72;;;1.90;99.90;;;;;;5037858;28;20192;-75
2023/03/29 03:36:05;;;;;;;5.07;3.77;;;1.80;99.90;;;;;;5042210;28;20171;-73
2023/03/29 03:38:34;;;;;;;4.67;4.13;;;1.80;99.90;;;;;;5043074;28;20180;-73
2023/03/29 03:41:00;;;;;;;5.23;4.00;;;1.80;99.90;;;;;;5046254;28;20191;-74
2023/03/29 03:43:27;;;;;;;5.33;4.00;;;1.70;99.90;;;;;;5041765;28;20200;-74
2023/03/29 03:45:53;;;;;;;5.63;4.37;;;1.70;99.90;;;;;;5037701;28;20204;-73
2023/03/29 03:48:19;;;;;;;5.87;4.67;;;1.70;99.90;;;;;;5034083;28;20239;-75
2023/03/29 03:50:57;;;;;;;5.07;4.57;;;1.60;99.90;;;;;;5026263;28;20448;-74
2023/03/29 03:53:24;;;;;;;6.60;4.53;;;1.50;99.90;;;;;;5033876;28;20207;-74
2023/03/29 03:55:52;;;;;;;5.47;4.27;;;1.50;99.90;;;;;;5027079;28;20173;-73
2023/03/29 03:58:18;;;;;;;6.53;4.50;;;1.50;99.90;;;;;;5040020;28;20241;-74
2023/03/29 04:00:47;;;;;;;5.73;4.70;;;1.50;99.90;;;;;;5038643;28;20185;-75
2023/03/29 04:03:13;;;;;;;5.60;4.60;;;1.50;99.90;;;;;;5036720;28;20223;-74
2023/03/29 04:05:40;;;;;;;7.40;4.87;;;1.50;99.90;;;;;;5030979;28;20200;-73
2023/03/29 04:08:06;;;;;;;6.97;4.90;;;1.40;99.90;;;;;;5043420;28;20176;-73
2023/03/29 04:10:33;;;;;;;7.43;5.03;;;1.40;99.90;;;;;;5029372;28;20186;-74
2023/03/29 04:13:03;;;;;;;8.87;5.40;;;1.40;99.90;;;;;;5035686;28;20719;-73
2023/03/29 04:15:30;;;;;;;6.23;4.60;;;1.40;99.90;;;;;;5039182;28;20175;-72
2023/03/29 04:17:56;;;;;;;5.37;4.70;;;1.50;99.90;;;;;;5032942;28;20266;-73
2023/03/29 04:20:23;;;;;;;5.50;5.07;;;1.60;99.90;;;;;;5036152;28;20284;-73
2023/03/29 04:22:49;;;;;;;9.40;5.27;;;1.80;99.90;;;;;;5039006;28;20575;-74
2023/03/29 04:25:15;;;;;;;5.60;5.10;;;1.90;99.90;;;;;;5027318;28;20212;-73
2023/03/29 04:27:42;;;;;;;6.90;5.23;;;2.00;99.90;;;;;;5026016;28;20281;-74
2023/03/29 04:30:09;;;;;;;5.67;5.03;;;2.00;99.90;;;;;;5030684;28;20226;-73
2023/03/29 04:32:34;;;;;;;6.03;4.93;;;2.00;99.90;;;;;;5029461;28;20235;-73
2023/03/29 04:35:01;;;;;;;5.40;4.90;;;1.90;99.90;;;;;;5027267;28;20220;-73
2023/03/29 04:37:28;;;;;;;9.03;5.27;;;2.00;99.90;;;;;;5030884;28;20659;-75
2023/03/29 04:39:54;;;;;;;6.57;5.60;;;2.10;99.90;;;;;;5032698;28;20173;-74
2023/03/29 04:42:19;;;;;;;6.80;4.90;;;2.20;99.90;;;;;;5027949;28;20587;-75
2023/03/29 04:44:45;;;;;;;5.37;4.87;;;2.40;99.90;;;;;;5027988;28;20196;-75
2023/03/29 04:47:13;;;;;;;7.73;5.30;;;2.40;99.90;;;;;;5040585;28;20176;-75
2023/03/29 04:49:40;;;;;;;6.00;5.18;;;2.40;99.90;;;;;;5029992;28;20236;-73
2023/03/29 04:52:06;;;;;;;8.53;5.47;;;2.40;99.90;;;;;;5031028;28;20207;-74
2023/03/29 04:54:32;;;;;;;6.60;5.70;;;2.30;99.90;;;;;;5022930;28;20593;-74
2023/03/29 04:56:57;;;;;;;8.00;5.50;;;2.30;99.90;;;;;;5035430;28;20188;-73
2023/03/29 04:59:23;;;;;;;10.67;5.33;;;2.30;99.90;;;;;;5028757;28;20176;-73
2023/03/29 05:01:48;;;;;;;5.77;5.07;;;2.20;99.90;;;;;;5028813;28;20205;-74
2023/03/29 05:04:14;;;;;;;6.77;5.37;;;2.20;99.90;;;;;;5035367;28;20198;-75
2023/03/29 05:06:40;;;;;;;7.27;5.10;;;2.10;99.90;;;;;;5034184;28;20230;-74
2023/03/29 05:09:07;;;;;;;6.43;5.83;;;2.10;99.90;;;;;;5028023;28;20203;-75
2023/03/29 05:11:33;;;;;;;5.40;4.90;;;2.10;99.90;;;;;;5033990;28;20196;-76
2023/03/29 05:14:02;;;;;;;5.70;5.27;;;2.10;99.90;;;;;;5018902;28;20690;-74
2023/03/29 05:16:28;;;;;;;7.27;5.73;;;2.00;99.90;;;;;;5037359;28;20184;-75
2023/03/29 05:18:55;;;;;;;6.43;5.60;;;2.00;99.90;;;;;;5039536;28;20181;-74
2023/03/29 05:21:21;;;;;;;5.90;5.40;;;2.10;99.90;;;;;;5035094;28;20652;-74
2023/03/29 05:23:47;;;;;;;6.60;5.80;;;2.20;99.90;;;;;;5026575;28;20188;-74
2023/03/29 05:26:14;;;;;;;6.47;5.17;;;2.20;99.90;;;;;;5026494;28;20219;-74
2023/03/29 05:28:40;;;;;;;6.63;6.03;;;2.20;99.90;;;;;;5028977;28;20172;-74
2023/03/29 05:31:06;;;;;;;5.93;5.43;;;2.20;99.90;;;;;;5026977;28;20173;-76
2023/03/29 05:33:33;;;;;;;6.53;5.93;;;2.20;99.90;;;;;;5035726;28;20195;-74
2023/03/29 05:36:04;;;;;;;6.80;5.90;;;2.20;99.90;;;;;;5031415;28;20260;-74
2023/03/29 05:38:31;;;;;;;6.07;5.47;;;2.20;99.90;;;;;;5035499;28;20171;-74
2023/03/29 05:40:57;;;;;;;6.43;5.83;;;2.30;99.90;;;;;;5012935;28;20550;-73
2023/03/29 05:43:23;;;;;;;7.03;6.43;;;2.40;99.90;;;;;;5015503;28;20297;-76
2023/03/29 05:45:52;;;;;;;5.90;5.47;;;2.40;99.90;;;;;;5023718;28;20776;-73
2023/03/29 05:48:18;;;;;;;7.10;6.50;;;2.40;99.90;;;;;;5039066;28;20718;-74
2023/03/29 05:50:48;;;;;;;6.83;6.23;;;2.40;99.90;;;;;;5030802;28;20176;-73
2023/03/29 05:53:15;;;;;;;7.43;6.60;;;2.30;99.90;;;;;;5042162;28;20330;-73
2023/03/29 05:55:41;;;;;;;8.40;6.85;;;2.40;99.90;;;;;;5043641;28;20609;-74
2023/03/29 05:58:07;;;;;;;6.93;6.22;;;2.40;99.90;;;;;;5041331;28;20341;-76
2023/03/29 06:00:35;;;;;;;9.93;7.83;;;2.40;99.90;;;;;;5021596;28;20343;-73
2023/03/29 06:03:01;;;;;;;7.03;5.97;;;2.60;99.90;;;;;;5036842;28;20196;-74
2023/03/29 06:05:28;;;;;;;6.88;6.28;;;2.70;99.90;;;;;;5036524;28;20295;-74
2023/03/29 06:07:55;;;;;;;6.70;6.15;;;2.70;99.90;;;;;;5041998;28;20181;-74
2023/03/29 06:10:22;;;;;;;6.20;5.72;;;2.80;99.90;;;;;;5029722;28;20172;-75
2023/03/29 06:12:49;;;;;;;6.82;5.82;;;3.00;99.90;;;;;;5044514;28;20292;-75
2023/03/29 06:15:15;;;;;;;6.65;6.05;;;3.10;99.90;;;;;;5037074;28;20596;-76
2023/03/29 06:17:43;;;;;;;6.07;5.57;;;3.30;99.90;;;;;;5037208;28;20260;-76
2023/03/29 06:20:10;;;;;;;6.35;5.65;;;3.30;99.90;;;;;;5042497;28;20685;-75
2023/03/29 06:22:37;;;;;;;7.60;5.72;;;3.50;99.90;;;;;;5028344;28;20283;-73
2023/03/29 06:25:04;;;;;;;6.80;6.13;;;3.50;99.90;;;;;;5039360;28;20658;-74
2023/03/29 06:27:31;;;;;;;6.87;5.63;;;3.40;99.90;;;;;;5032297;28;20184;-74
2023/03/29 06:29:58;;;;;;;6.22;5.65;;;3.40;99.90;;;;;;5038172;28;20183;-74
2023/03/29 06:32:24;;;;;;;7.18;6.07;;;3.50;99.90;;;;;;5034500;28;20199;-74
2023/03/29 06:34:50;;;;;;;6.40;5.85;;;3.50;99.90;;;;;;5030408;28;20181;-74
2023/03/29 06:37:16;;;;;;;6.63;5.57;;;3.50;99.90;;;;;;5026612;28;20255;-75
2023/03/29 06:39:42;;;;;;;7.90;6.32;;;3.60;99.90;;;;;;5033712;28;20658;-75
2023/03/29 06:42:08;;;;;;;6.15;5.65;;;3.80;99.90;;;;;;5029698;28;20205;-74
2023/03/29 06:44:34;;;;;;;5.78;5.30;;;3.80;99.90;;;;;;5035003;28;20245;-74
2023/03/29 06:47:00;;;;;;;5.80;5.30;;;3.90;99.90;;;;;;5031732;28;20176;-74
2023/03/29 06:49:26;;;;;;;6.35;5.80;;;4.10;99.90;;;;;;5031093;28;20193;-73
2023/03/29 06:51:52;;;;;;;6.70;5.97;;;4.10;99.90;;;;;;5038075;28;20314;-73
2023/03/29 06:54:18;;;;;;;6.28;5.47;;;4.20;99.90;;;;;;5035644;28;20715;-74
2023/03/29 06:56:46;;;;;;;5.72;5.32;;;4.20;99.90;;;;;;5039985;28;20259;-73
2023/03/29 06:59:12;;;;;;;4.78;4.35;;;4.30;99.90;;;;;;5035253;28;20238;-73
2023/03/29 07:01:38;;;;;;;6.00;5.40;;;4.40;99.90;;;;;;5038968;28;20192;-74
2023/03/29 07:04:08;;;;;;;7.63;5.65;;;4.50;99.90;;;;;;5042698;28;20180;-71
2023/03/29 07:06:35;;;;;;;5.47;5.07;;;4.60;99.90;;;;;;5036925;28;20258;-73
2023/03/29 07:09:01;;;;;;;5.53;5.00;;;4.70;99.90;;;;;;5037019;28;20173;-73
2023/03/29 07:11:27;;;;;;;5.50;5.05;;;4.90;99.90;;;;;;5036364;28;20177;-74
2023/03/29 07:13:54;;;;;;;4.93;4.45;;;5.10;99.90;;;;;;5023916;28;20235;-75
2023/03/29 07:16:20;;;;;;;5.00;4.60;;;5.00;99.90;;;;;;5043140;28;20187;-76
2023/03/29 07:18:46;;;;;;;4.97;4.57;;;5.10;99.90;;;;;;5028927;28;20180;-75
2023/03/29 07:21:12;;;;;;;5.32;4.38;;;5.30;99.90;;;;;;5041270;28;20183;-73
2023/03/29 07:23:38;;;;;;;4.85;4.55;;;5.50;99.90;;;;;;5029372;28;20196;-75
2023/03/29 07:26:06;;;;;;;6.53;4.93;;;5.50;99.90;;;;;;5037846;28;20234;-75
2023/03/29 07:28:33;;;;;;;4.95;4.55;;;5.60;99.90;;;;;;5032889;28;20700;-73
2023/03/29 07:31:09;;;;;;;4.85;4.45;;;5.50;99.90;;;;;;5038406;28;20215;-74
2023/03/29 07:33:36;;;;;;;5.25;4.85;;;5.50;99.90;;;;;;5036153;28;20176;-74
2023/03/29 07:36:03;;;;;;;5.00;4.50;;;5.60;99.90;;;;;;5031026;28;20191;-72
2023/03/29 07:38:30;;;;;;;5.13;4.78;;;5.60;99.90;;;;;;5040205;28;20185;-73
2023/03/29 07:40:56;;;;;;;4.80;4.45;;;5.50;99.90;;;;;;5025011;28;20274;-72
2023/03/29 07:43:22;;;;;;;4.88;4.47;;;5.40;99.90;;;;;;5037372;28;20196;-72
2023/03/29 07:45:49;;;;;;;5.57;5.07;;;5.40;99.90;;;;;;5035399;28;21847;-73
2023/03/29 07:48:16;;;;;;;7.65;5.15;;;5.50;99.90;;;;;;5032255;28;20264;-73
2023/03/29 07:50:42;;;;;;;4.85;4.32;;;5.70;99.90;;;;;;5038349;28;20512;-73
2023/03/29 07:53:08;;;;;;;6.30;4.55;;;5.90;99.90;;;;;;5046734;28;20595;-73
2023/03/29 07:55:34;;;;;;;4.97;4.57;;;5.90;99.90;;;;;;5035160;28;20206;-74
2023/03/29 07:58:00;;;;;;;6.40;4.50;;;6.00;99.90;;;;;;5033218;28;20647;-73
2023/03/29 08:00:26;;;;;;;5.45;4.53;;;5.80;99.90;;;;;;5035223;28;20255;-73
2023/03/29 08:02:52;;;;;;;5.10;4.70;;;5.80;99.90;;;;;;5019387;28;20212;-73
2023/03/29 08:05:20;;;;;;;4.82;4.43;;;5.70;99.90;;;;;;5035721;28;20586;-73
2023/03/29 08:07:46;;;;;;;6.35;4.40;;;5.80;99.90;;;;;;5040779;28;20183;-73
2023/03/29 08:10:17;;;;;;;4.75;4.35;;;5.90;99.90;;;;;;5045437;28;20607;-73
2023/03/29 08:12:44;;;;;;;5.15;4.30;;;6.00;99.90;;;;;;5035771;28;20232;-73
2023/03/29 08:15:10;;;;;;;5.10;4.60;;;6.00;99.90;;;;;;5037088;28;20176;-73
2023/03/29 08:17:36;;;;;;;4.85;4.43;;;6.20;99.90;;;;;;5037338;28;20188;-72
2023/03/29 08:20:09;;;;;;;5.00;4.38;;;6.30;99.90;;;;;;5032661;28;20250;-72
2023/03/29 08:22:35;;;;;;;5.22;4.43;;;6.40;99.90;;;;;;5035651;28;20202;-72
2023/03/29 08:25:01;;;;;;;5.38;4.53;;;6.30;99.90;;;;;;5043677;28;20290;-74
2023/03/29 08:27:27;;;;;;;6.93;4.60;;;6.40;99.90;;;;;;5039224;28;20180;-73
2023/03/29 08:29:53;;;;;;;4.22;3.90;;;6.80;99.90;;;;;;5038705;28;20200;-73
2023/03/29 08:32:19;;;;;;;4.93;4.32;;;6.90;99.90;;;;;;5036797;28;20640;-72
2023/03/29 08:34:45;;;;;;;4.28;3.88;;;7.20;99.90;;;;;;5047415;28;20191;-73
2023/03/29 08:37:11;;;;;;;4.65;4.13;;;7.50;99.90;;;;;;5036855;28;20184;-73
2023/03/29 08:39:37;;;;;;;4.38;4.15;;;7.70;99.90;;;;;;5040125;28;20188;-74
2023/03/29 08:42:09;;;;;;;5.53;4.30;;;7.80;99.90;;;;;;5040348;28;20207;-75
2023/03/29 08:44:54;;;;;;;5.25;4.05;;;7.90;99.90;;;;;;5026982;28;20245;-75
2023/03/29 08:47:37;;;;;;;4.55;4.25;;;7.70;99.90;;;;;;5043907;28;20185;-75
2023/03/29 08:50:03;;;;;;;4.13;3.80;;;7.80;99.90;;;;;;5043249;28;20168;-76
2023/03/29 08:52:34;;;;;;;4.00;3.80;;;8.10;99.90;;;;;;5024141;28;20357;-73
2023/03/29 08:55:04;;;;;;;4.35;3.95;;;8.50;99.90;;;;;;5022652;28;20184;-74
2023/03/29 08:57:45;;;;;;;4.82;4.43;;;8.80;99.90;;;;;;5027969;28;20219;-74
2023/03/29 09:00:23;;;;;;;4.13;3.83;;;8.80;99.90;;;;;;5018429;28;20204;-73
2023/03/29 09:02:52;;;;;;;3.80;3.50;;;8.90;99.90;;;;;;5022740;28;20200;-72
2023/03/29 09:05:25;;;;;;;4.30;3.90;;;8.90;99.90;;;;;;5038455;28;20678;-73
2023/03/29 09:07:52;;;;;;;3.90;3.60;;;9.30;99.90;;;;;;5029049;28;20230;-73
2023/03/29 09:10:25;;;;;;;4.25;3.95;;;9.50;99.90;;;;;;5030169;28;20181;-74
2023/03/29 09:13:09;;;;;;;4.18;3.85;;;9.70;99.90;;;;;;5019081;28;20196;-74
2023/03/29 09:16:02;;;;;;;5.50;4.00;;;9.90;99.90;;;;;;5018041;28;20601;-72
2023/03/29 09:18:56;;;;;;;4.72;4.15;;;10.00;99.90;;;;;;5016278;28;20661;-74
2023/03/29 09:21:45;;;;;;;4.20;3.90;;;10.00;99.90;;;;;;5019391;28;20188;-73
2023/03/29 09:24:42;;;;;;;4.60;4.20;;;10.60;99.90;;;;;;5024112;28;20619;-73
2023/03/29 09:27:14;;;;;;;4.40;4.00;;;11.00;99.90;;;;;;5020684;28;20706;-73
2023/03/29 09:30:06;;;;;;;3.60;3.40;;;11.40;99.90;;;;;;5021807;28;20592;-75
2023/03/29 09:32:57;;;;;;;4.25;3.85;;;11.40;99.90;;;;;;5024440;28;20220;-74
2023/03/29 09:35:39;;;;;;;4.13;3.72;;;11.70;99.90;;;;;;5029923;28;20205;-78
2023/03/29 09:38:10;;;;;;;5.78;3.72;;;11.90;99.90;;;;;;5027192;28;20566;-75
2023/03/29 09:40:46;;;;;;;3.80;3.50;;;12.20;99.90;;;;;;5027826;28;20618;-75
2023/03/29 09:43:17;;;;;;;4.07;3.55;;;12.60;99.90;;;;;;5023870;28;20245;-76
2023/03/29 09:45:46;;;;;;;4.10;3.60;;;12.60;99.90;;;;;;5025887;28;20298;-75
2023/03/29 09:48:14;;;;;;;3.35;3.05;;;12.60;99.90;;;;;;5029986;28;20668;-75
2023/03/29 09:50:46;;;;;;;4.15;3.53;;;12.60;99.90;;;;;;5028593;28;20188;-75
2023/03/29 09:53:13;;;;;;;5.35;3.67;;;12.40;99.90;;;;;;5020771;28;20615;-75
2023/03/29 09:55:39;;;;;;;4.03;3.70;;;12.30;99.90;;;;;;5030263;28;20203;-76
2023/03/29 09:58:21;;;;;;;4.10;3.78;;;12.00;99.90;;;;;;5022486;28;20176;-76
2023/03/29 10:00:47;;;;;;;3.92;3.63;;;12.20;99.90;;;;;;5031235;28;20230;-77
2023/03/29 10:03:30;;;;;;;3.13;2.90;;;12.70;99.90;;;;;;5030212;28;20655;-76
2023/03/29 10:05:58;;;;;;;3.70;3.40;;;13.00;99.90;;;;;;5032973;28;20217;-76
2023/03/29 10:08:35;;;;;;;3.38;3.10;;;13.80;99.90;;;;;;5024249;28;20192;-75
2023/03/29 10:11:08;;;;;;;3.95;3.65;;;14.70;99.90;;;;;;5020150;28;20180;-76
2023/03/29 10:13:42;;;;;;;3.35;3.15;;;15.30;99.90;;;;;;5024847;28;21082;-75
2023/03/29 10:16:23;;;;;;;3.35;3.05;;;15.90;98.40;;;;;;5032006;28;20184;-76
2023/03/29 10:18:49;;;;;;;3.75;3.45;;;16.10;95.20;;;;;;5018657;28;20689;-78
2023/03/29 10:21:20;;;;;;;3.63;3.33;;;16.30;95.70;;;;;;5023854;28;20674;-79
2023/03/29 10:23:47;;;;;;;3.15;2.85;;;16.90;94.30;;;;;;5015770;28;20259;-79
2023/03/29 10:26:31;;;;;;;3.05;2.80;;;18.00;92.40;;;;;;5018794;28;20240;-79
2023/03/29 10:29:00;;;;;;;4.47;3.00;;;18.80;87.50;;;;;;5019779;28;21543;-80
2023/03/29 10:31:32;;;;;;;2.97;2.72;;;19.00;86.60;;;;;;5016854;28;20181;-79
2023/03/29 10:34:05;;;;;;;3.60;3.30;;;19.20;87.40;;;;;;5016844;28;20271;-79
2023/03/29 10:36:31;;;;;;;4.22;3.33;;;18.80;85.00;;;;;;5025779;28;20244;-79
2023/03/29 10:38:59;;;;;;;3.90;3.22;;;18.10;84.20;;;;;;5022003;28;20275;-79
2023/03/29 10:41:26;;;;;;;3.72;3.53;;;17.40;84.80;;;;;;5016960;28;20605;-79
2023/03/29 10:43:52;;;;;;;3.97;3.65;;;16.50;87.00;;;;;;5012587;28;20190;-77
2023/03/29 10:46:26;;;;;;;3.38;3.13;;;16.20;89.10;;;;;;5017141;28;20223;-78
2023/03/29 10:49:17;;;;;;;3.42;3.17;;;16.70;91.40;;;;;;5012241;28;20614;-78
2023/03/29 10:51:48;;;;;;;3.83;3.53;;;17.00;90.30;;;;;;5009880;28;20239;-78
2023/03/29 10:54:19;;;;;;;3.67;3.33;;;17.20;91.30;;;;;;5014878;28;20192;-78
2023/03/29 10:56:57;;;;;;;3.38;2.83;;;16.90;87.60;;;;;;5014915;28;20327;-77
2023/03/29 10:59:29;;;;;;;3.50;3.20;;;16.40;92.20;;;;;;5013755;28;20230;-77
2023/03/29 11:02:13;;;;;;;3.40;3.20;;;16.40;90.20;;;;;;5015919;28;20211;-76
2023/03/29 11:04:58;;;;;;;3.60;3.40;;;16.80;91.50;;;;;;5013800;28;20216;-77
2023/03/29 11:07:28;;;;;;;3.30;3.10;;;17.60;90.60;;;;;;5024473;28;20181;-77
2023/03/29 11:10:29;;;;;;;3.25;3.10;;;18.00;84.70;;;;;;5017439;28;20665;-78
2023/03/29 11:13:07;;;;;;;3.05;2.85;;;20.00;87.30;;;;;;5019273;28;20258;-77
2023/03/29 11:15:57;;;;;;;3.58;3.25;;;21.60;76.90;;;;;;5020237;28;20188;-78
2023/03/29 11:18:26;;;;;;;3.17;2.97;;;22.20;71.60;;;;;;5019095;28;20219;-77
2023/03/29 11:20:58;;;;;;;3.40;3.10;;;21.10;70.50;;;;;;5014060;28;20197;-81
2023/03/29 11:23:43;;;;;;;3.60;3.30;;;20.10;75.00;;;;;;5015870;28;20208;-79
2023/03/29 11:26:29;;;;;;;3.53;3.28;;;19.70;80.40;;;;;;5014681;28;20558;-77
2023/03/29 11:29:11;;;;;;;3.22;3.03;;;19.30;75.20;;;;;;5013568;28;20235;-76
2023/03/29 11:31:59;;;;;;;2.97;2.78;;;19.30;78.90;;;;;;5013167;28;20224;-75
2023/03/29 11:34:54;;;;;;;4.20;3.20;;;19.80;78.40;;;;;;5013653;28;20246;-78
2023/03/29 11:37:42;;;;;;;4.03;3.58;;;20.00;76.00;;;;;;5015590;28;20185;-75
2023/03/29 11:40:27;;;;;;;2.92;2.72;;;18.90;74.70;;;;;;5012552;28;20263;-77
2023/03/29 11:42:56;;;;;;;3.88;3.42;;;18.40;78.30;;;;;;5012526;28;20279;-76
2023/03/29 11:45:34;;;;;;;3.05;2.88;;;18.30;80.70;;;;;;5013224;28;20287;-77
2023/03/29 11:48:04;;;;;;;3.60;3.40;;;18.20;81.50;;;;;;5014613;28;20176;-77
2023/03/29 11:50:42;;;;;;;3.35;3.05;;;17.80;79.60;;;;;;5012873;28;20268;-78
2023/03/29 11:53:16;;;;;;;3.50;3.30;;;17.00;83.50;;;;;;5014018;28;20632;-77
2023/03/29 11:55:43;;;;;;;3.47;3.17;;;16.70;89.40;;;;;;5012499;28;20184;-76
2023/03/29 11:58:14;;;;;;;4.20;3.80;;;16.70;87.60;;;;;;5012517;28;20638;-81
2023/03/29 12:00:55;;;;;;;3.70;3.40;;;16.50;85.10;;;;;;5011145;28;20948;-77
2023/03/29 12:03:41;;;;;;;3.40;3.20;;;16.50;90.50;;;;;;5014217;28;20216;-79
2023/03/29 12:06:38;;;;;;;3.80;3.50;;;16.80;87.90;;;;;;5020955;28;20193;-76
2023/03/29 12:09:28;;;;;;;4.05;3.65;;;16.70;85.10;;;;;;5013501;28;20207;-82
2023/03/29 12:12:01;;;;;;;3.80;3.50;;;17.00;84.30;;;;;;5013657;28;20215;-76
2023/03/29 12:14:38;;;;;;;3.17;3.00;;;16.30;85.30;;;;;;5015288;28;20647;-75
2023/03/29 12:17:09;;;;;;;3.53;3.25;;;16.20;90.90;;;;;;5013629;28;20647;-75
2023/03/29 12:20:05;;;;;;;3.72;3.30;;;16.20;91.60;;;;;;5018001;28;20191;-76
2023/03/29 12:22:32;;;;;;;3.90;3.60;;;15.90;90.30;;;;;;5014523;28;20219;-76
2023/03/29 12:25:00;;;;;;;5.00;3.80;;;15.30;89.60;;;;;;5012180;28;20200;-77
2023/03/29 12:27:37;;;;;;;3.97;3.67;;;14.70;91.10;;;;;;5011990;28;20734;-77
2023/03/29 12:30:17;;;;;;;3.28;3.08;;;14.60;93.80;;;;;;5030664;28;20215;-76
2023/03/29 12:33:30;;;;;;;3.28;3.08;;;14.70;95.20;;;;;;5025079;28;20206;-76
2023/03/29 12:36:11;;;;;;;4.50;3.75;;;14.60;94.10;;;;;;5009757;28;20215;-76
2023/03/29 12:38:37;;;;;;;4.47;4.07;;;14.30;93.70;;;;;;5015614;28;20687;-76
2023/03/29 12:41:15;;;;;;;3.92;3.63;;;13.80;94.00;;;;;;5017877;28;20191;-77
2023/03/29 12:43:42;;;;;;;3.65;3.45;;;13.60;96.40;;;;;;5024206;28;20686;-77
2023/03/29 12:46:30;;;;;;;3.58;3.28;;;13.50;97.70;;;;;;5018512;28;20258;-75
2023/03/29 12:49:03;;;;;;;3.97;3.55;;;13.30;96.30;;;;;;5012136;28;20529;-76
2023/03/29 12:51:31;;;;;;;4.20;3.58;;;13.10;98.40;;;;;;5031632;28;20585;-76
2023/03/29 12:54:07;;;;;;;4.82;3.85;;;13.00;99.90;;;;;;5029255;28;20714;-76
2023/03/29 12:56:41;;;;;;;4.18;3.88;;;12.80;99.90;;;;;;5032405;28;20185;-76
2023/03/29 12:59:10;;;;;;;4.07;3.67;;;12.60;99.90;;;;;;5023664;28;20648;-76
2023/03/29 13:01:39;;;;;;;3.92;3.60;;;12.50;99.90;;;;;;5035075;28;20210;-76
2023/03/29 13:04:18;;;;;;;4.78;3.65;;;12.40;99.90;;;;;;5037650;28;20218;-77
2023/03/29 13:07:04;;;;;;;3.88;3.67;;;12.40;99.90;;;;;;5033308;28;20261;-76
2023/03/29 13:09:30;;;;;;;3.85;3.60;;;12.30;99.90;;;;;;5029412;28;20193;-75
2023/03/29 13:12:10;;;;;;;5.53;3.70;;;12.30;99.90;;;;;;5023816;28;20204;-76
2023/03/29 13:14:41;;;;;;;4.45;4.03;;;12.30;99.90;;;;;;5030389;28;20188;-76